Time;durP1;ratioP1;P1;durP2;ratioP2;P2;SDS_P1;SDS_P2;PMS_P1;PMS_P2;Temp;Humidity;BMP_temperature;BMP_pressure;BME280_temperature;BME280_humidity;BME280_pressure;Samples;Min_cycle;Max_cycle;Signal;HPM_P1;HPM_P2
2022/10/23 00:01:26;;;;;;;6.22;2.58;;;;;;;;;;5115318;28;20289;-64
2022/10/23 00:03:56;;;;;;;3.20;1.63;;;;;;;;;;5115327;28;20193;-64
2022/10/23 00:06:25;;;;;;;7.00;2.15;;;;;;;;;;5135852;27;20649;-64
2022/10/23 00:08:53;;;;;;;2.30;1.60;;;;;;;;;;5135583;27;20248;-63
2022/10/23 00:11:21;;;;;;;2.92;1.80;;;;;;;;;;5113879;27;20216;-64
2022/10/23 00:13:50;;;;;;;4.03;2.47;;;;;;;;;;5115190;28;20245;-64
2022/10/23 00:16:17;;;;;;;2.85;2.00;;;;;;;;;;5133450;27;20184;-64
2022/10/23 00:18:45;;;;;;;2.55;1.80;;;;;;;;;;5135615;27;20224;-63
2022/10/23 00:21:13;;;;;;;5.75;2.45;;;;;;;;;;5117456;27;21012;-63
2022/10/23 00:23:42;;;;;;;2.67;1.80;;;;;;;;;;5130174;27;20192;-63
2022/10/23 00:26:14;;;;;;;4.60;2.00;;;;;;;;;;5135349;27;20187;-64
2022/10/23 00:28:42;;;;;;;3.72;1.60;;;;;;;;;;5119342;27;20275;-63
2022/10/23 00:31:09;;;;;;;5.28;2.40;;;;;;;;;;5114760;28;20729;-63
2022/10/23 00:33:37;;;;;;;4.93;2.80;;;;;;;;;;5128191;27;20188;-63
2022/10/23 00:36:05;;;;;;;4.40;2.25;;;;;;;;;;5135474;27;20188;-64
2022/10/23 00:38:33;;;;;;;6.05;2.80;;;;;;;;;;5122016;27;20196;-64
2022/10/23 00:41:02;;;;;;;3.65;2.60;;;;;;;;;;5114581;28;20265;-64
2022/10/23 00:43:30;;;;;;;4.20;2.33;;;;;;;;;;5125973;27;20184;-64
2022/10/23 00:45:58;;;;;;;4.10;2.85;;;;;;;;;;5134932;27;20191;-64
2022/10/23 00:48:26;;;;;;;4.95;2.13;;;;;;;;;;5123610;27;20185;-64
2022/10/23 00:50:53;;;;;;;1.90;1.00;;;;;;;;;;5123089;27;20184;-64
2022/10/23 00:53:21;;;;;;;2.40;1.75;;;;;;;;;;5135232;27;20192;-64
2022/10/23 00:55:51;;;;;;;6.53;2.05;;;;;;;;;;5126551;27;20189;-63
2022/10/23 00:58:21;;;;;;;2.20;1.23;;;;;;;;;;5114580;28;20802;-63
2022/10/23 01:00:50;;;;;;;2.47;1.30;;;;;;;;;;5120490;27;20669;-63
2022/10/23 01:03:20;;;;;;;2.17;1.17;;;;;;;;;;5134880;27;20184;-64
2022/10/23 01:05:49;;;;;;;4.32;1.92;;;;;;;;;;5128277;27;20245;-63
2022/10/23 01:08:24;;;;;;;2.53;1.52;;;;;;;;;;5113982;28;20227;-64
2022/10/23 01:10:54;;;;;;;4.80;2.25;;;;;;;;;;5093874;28;20714;-63
2022/10/23 01:13:29;;;;;;;3.10;1.90;;;;;;;;;;5093980;28;20177;-63
2022/10/23 01:15:59;;;;;;;2.50;1.48;;;;;;;;;;5093584;28;20663;-63
2022/10/23 01:18:28;;;;;;;4.32;2.35;;;;;;;;;;5093713;28;20711;-63
2022/10/23 01:20:58;;;;;;;2.72;1.80;;;;;;;;;;5093563;28;20223;-65
2022/10/23 01:23:43;;;;;;;2.63;1.45;;;;;;;;;;5104487;27;20668;-64
2022/10/23 01:26:36;;;;;;;2.25;1.40;;;;;;;;;;5134245;27;20289;-63
2022/10/23 01:29:09;;;;;;;2.65;1.52;;;;;;;;;;5123302;27;20185;-63
2022/10/23 01:31:40;;;;;;;2.75;1.35;;;;;;;;;;5113779;28;20237;-63
2022/10/23 01:34:10;;;;;;;2.28;1.40;;;;;;;;;;5121678;27;20184;-63
2022/10/23 01:36:40;;;;;;;3.13;1.63;;;;;;;;;;5134063;27;20691;-63
2022/10/23 01:39:09;;;;;;;2.58;1.60;;;;;;;;;;5123911;27;20207;-63
2022/10/23 01:41:41;;;;;;;3.03;1.80;;;;;;;;;;5112755;28;20256;-64
2022/10/23 01:44:12;;;;;;;2.65;1.63;;;;;;;;;;5122522;27;20188;-64
2022/10/23 01:46:40;;;;;;;3.20;2.30;;;;;;;;;;5133960;27;20278;-63
2022/10/23 01:49:09;;;;;;;13.65;2.20;;;;;;;;;;5124754;27;20249;-63
2022/10/23 01:51:38;;;;;;;4.45;1.42;;;;;;;;;;5119849;27;20531;-64
2022/10/23 01:54:07;;;;;;;4.03;2.50;;;;;;;;;;5133828;27;20199;-63
2022/10/23 01:56:36;;;;;;;7.15;2.88;;;;;;;;;;5126929;27;20180;-63
2022/10/23 01:59:05;;;;;;;3.92;1.90;;;;;;;;;;5112757;28;20192;-64
2022/10/23 02:01:36;;;;;;;8.70;3.45;;;;;;;;;;5117584;27;20253;-63
2022/10/23 02:04:06;;;;;;;7.57;2.60;;;;;;;;;;5133687;27;20613;-63
2022/10/23 02:06:34;;;;;;;4.20;2.00;;;;;;;;;;5128300;27;20180;-64
2022/10/23 02:09:01;;;;;;;3.38;1.60;;;;;;;;;;5112979;28;20192;-63
2022/10/23 02:11:29;;;;;;;2.33;1.30;;;;;;;;;;5116214;27;20184;-64
2022/10/23 02:14:00;;;;;;;7.13;1.80;;;;;;;;;;5133151;27;20203;-64
2022/10/23 02:16:31;;;;;;;3.67;1.67;;;;;;;;;;5130144;27;20598;-63
2022/10/23 02:19:05;;;;;;;2.95;1.75;;;;;;;;;;5113770;28;20262;-64
2022/10/23 02:21:35;;;;;;;3.25;2.20;;;;;;;;;;5133546;27;20211;-63
2022/10/23 02:24:04;;;;;;;5.80;1.98;;;;;;;;;;5131830;27;20188;-63
2022/10/23 02:26:34;;;;;;;4.03;2.00;;;;;;;;;;5112806;28;20192;-63
2022/10/23 02:29:06;;;;;;;5.28;2.90;;;;;;;;;;5112968;28;20189;-67
2022/10/23 02:31:33;;;;;;;5.57;3.58;;;;;;;;;;5124110;28;20630;-63
2022/10/23 02:34:02;;;;;;;5.50;3.58;;;;;;;;;;5132858;27;20183;-63
2022/10/23 02:36:29;;;;;;;5.05;2.38;;;;;;;;;;5092404;28;20192;-63
2022/10/23 02:38:57;;;;;;;2.28;1.63;;;;;;;;;;5092304;28;20647;-64
2022/10/23 02:41:33;;;;;;;2.55;1.30;;;;;;;;;;5131476;28;20216;-63
2022/10/23 02:44:06;;;;;;;2.40;1.65;;;;;;;;;;5133264;27;20196;-63
2022/10/23 02:46:38;;;;;;;3.15;1.70;;;;;;;;;;5132367;28;20278;-66
2022/10/23 02:49:09;;;;;;;2.40;1.40;;;;;;;;;;5133095;28;20199;-66
2022/10/23 02:51:44;;;;;;;2.25;1.30;;;;;;;;;;5132543;27;20195;-65
2022/10/23 02:54:16;;;;;;;2.55;1.40;;;;;;;;;;5137286;27;20259;-65
2022/10/23 02:56:50;;;;;;;2.50;1.02;;;;;;;;;;5128650;27;20203;-65
2022/10/23 02:59:21;;;;;;;2.80;1.83;;;;;;;;;;5116432;28;20192;-65
2022/10/23 03:01:50;;;;;;;2.30;1.48;;;;;;;;;;5116222;28;20223;-65
2022/10/23 03:04:20;;;;;;;3.95;2.42;;;;;;;;;;5116555;27;20184;-68
2022/10/23 03:06:47;;;;;;;3.58;1.95;;;;;;;;;;5116602;28;20192;-65
2022/10/23 03:09:15;;;;;;;6.78;1.15;;;;;;;;;;5135504;27;20202;-65
2022/10/23 03:11:42;;;;;;;9.77;1.58;;;;;;;;;;5136888;27;20528;-65
2022/10/23 03:14:10;;;;;;;2.10;1.55;;;;;;;;;;5118736;27;20554;-66
2022/10/23 03:16:38;;;;;;;3.00;1.23;;;;;;;;;;5116169;28;20188;-66
2022/10/23 03:19:05;;;;;;;4.70;1.58;;;;;;;;;;5132238;27;20215;-66
2022/10/23 03:21:34;;;;;;;4.32;1.42;;;;;;;;;;5136715;27;20609;-65
2022/10/23 03:24:04;;;;;;;2.15;1.10;;;;;;;;;;5120160;27;20188;-65
2022/10/23 03:26:32;;;;;;;21.70;2.10;;;;;;;;;;5116167;28;20196;-65
2022/10/23 03:28:59;;;;;;;3.00;2.45;;;;;;;;;;5130823;27;20282;-66
2022/10/23 03:31:35;;;;;;;4.20;2.00;;;;;;;;;;5136555;27;20236;-66
2022/10/23 03:34:02;;;;;;;2.88;1.98;;;;;;;;;;5121490;27;20638;-66
2022/10/23 03:36:36;;;;;;;4.40;2.15;;;;;;;;;;5115941;28;20218;-65
2022/10/23 03:39:04;;;;;;;8.98;2.95;;;;;;;;;;5129652;27;20195;-66
2022/10/23 03:41:31;;;;;;;6.57;2.75;;;;;;;;;;5136215;27;20215;-63
2022/10/23 03:43:59;;;;;;;6.72;3.08;;;;;;;;;;5122676;27;20180;-63
2022/10/23 03:46:27;;;;;;;3.05;2.10;;;;;;;;;;5115653;28;20195;-64
2022/10/23 03:48:57;;;;;;;8.50;2.45;;;;;;;;;;5127373;27;20191;-64
2022/10/23 03:51:24;;;;;;;3.80;2.58;;;;;;;;;;5125915;27;20271;-64
2022/10/23 03:53:56;;;;;;;4.43;2.10;;;;;;;;;;5115858;28;20245;-66
2022/10/23 03:56:24;;;;;;;5.20;2.13;;;;;;;;;;5124424;27;20256;-64
2022/10/23 03:58:53;;;;;;;3.40;2.03;;;;;;;;;;5136240;27;20192;-65
2022/10/23 04:01:21;;;;;;;4.00;2.20;;;;;;;;;;5127324;27;20239;-66
2022/10/23 04:03:49;;;;;;;3.45;2.08;;;;;;;;;;5114868;28;20237;-65
2022/10/23 04:06:16;;;;;;;4.50;2.75;;;;;;;;;;5122468;27;20180;-66
2022/10/23 04:08:44;;;;;;;4.38;3.28;;;;;;;;;;5136051;27;20244;-65
2022/10/23 04:11:13;;;;;;;4.28;2.60;;;;;;;;;;5126199;27;20184;-66
2022/10/23 04:13:40;;;;;;;4.57;2.50;;;;;;;;;;5115151;28;20286;-66
2022/10/23 04:16:08;;;;;;;7.80;3.47;;;;;;;;;;5123473;27;20188;-66
2022/10/23 04:18:35;;;;;;;9.38;3.38;;;;;;;;;;5132351;27;20211;-66
2022/10/23 04:21:03;;;;;;;4.47;2.47;;;;;;;;;;5115236;28;20211;-65
2022/10/23 04:23:33;;;;;;;2.75;1.80;;;;;;;;;;5116511;27;20554;-67
2022/10/23 04:26:00;;;;;;;3.58;1.95;;;;;;;;;;5135875;27;20234;-66
2022/10/23 04:28:29;;;;;;;2.85;1.65;;;;;;;;;;5134787;27;20238;-66
2022/10/23 04:30:57;;;;;;;6.97;2.40;;;;;;;;;;5115121;28;20227;-66
2022/10/23 04:33:24;;;;;;;14.25;4.07;;;;;;;;;;5115039;28;20253;-66
2022/10/23 04:35:52;;;;;;;8.98;2.15;;;;;;;;;;5135576;27;20210;-65
2022/10/23 04:38:19;;;;;;;3.03;1.90;;;;;;;;;;5135507;27;20658;-65
2022/10/23 04:40:47;;;;;;;7.78;4.22;;;;;;;;;;5115599;27;20190;-65
2022/10/23 04:43:14;;;;;;;4.80;2.72;;;;;;;;;;5114756;28;20196;-66
2022/10/23 04:45:43;;;;;;;4.30;2.33;;;;;;;;;;5132167;27;20669;-66
2022/10/23 04:48:11;;;;;;;4.97;2.50;;;;;;;;;;5118736;27;20184;-65
2022/10/23 04:50:38;;;;;;;5.80;2.63;;;;;;;;;;5114751;28;20279;-65
2022/10/23 04:53:06;;;;;;;3.45;2.30;;;;;;;;;;5116661;27;20187;-65
2022/10/23 04:55:33;;;;;;;3.95;2.60;;;;;;;;;;5122361;27;20282;-66
2022/10/23 04:58:01;;;;;;;4.25;1.95;;;;;;;;;;5116713;27;20696;-63
2022/10/23 05:00:28;;;;;;;3.05;1.80;;;;;;;;;;5115342;27;20562;-65
2022/10/23 05:02:57;;;;;;;3.55;1.63;;;;;;;;;;5123851;27;20212;-63
2022/10/23 05:05:27;;;;;;;5.18;1.73;;;;;;;;;;5113329;28;20261;-65
2022/10/23 05:07:55;;;;;;;3.40;2.10;;;;;;;;;;5113254;28;20185;-66
2022/10/23 05:10:22;;;;;;;5.20;2.40;;;;;;;;;;5114465;28;20193;-66
2022/10/23 05:12:50;;;;;;;6.70;3.60;;;;;;;;;;5114477;28;20200;-65
2022/10/23 05:15:17;;;;;;;16.48;8.55;;;;;;;;;;5113794;28;20237;-64
2022/10/23 05:17:47;;;;;;;12.52;7.30;;;;;;;;;;5114292;28;20193;-65
2022/10/23 05:20:18;;;;;;;8.52;6.30;;;;;;;;;;5113977;28;20184;-66
2022/10/23 05:22:52;;;;;;;10.32;6.30;;;;;;;;;;5114101;28;20226;-68
2022/10/23 05:25:20;;;;;;;17.63;5.93;;;;;;;;;;5113631;28;20534;-65
2022/10/23 05:27:48;;;;;;;8.98;5.78;;;;;;;;;;5114101;28;20196;-66
2022/10/23 05:30:18;;;;;;;11.25;5.03;;;;;;;;;;5113772;28;20199;-65
2022/10/23 05:32:45;;;;;;;13.98;6.10;;;;;;;;;;5113860;28;20917;-65
2022/10/23 05:35:16;;;;;;;8.93;4.47;;;;;;;;;;5113628;28;20245;-65
2022/10/23 05:37:46;;;;;;;6.03;4.40;;;;;;;;;;5113968;28;20199;-68
2022/10/23 05:40:14;;;;;;;5.03;3.35;;;;;;;;;;5113952;28;20234;-65
2022/10/23 05:42:43;;;;;;;13.63;4.80;;;;;;;;;;5124799;27;20662;-63
2022/10/23 05:45:11;;;;;;;12.18;6.03;;;;;;;;;;5115092;27;20180;-64
2022/10/23 05:47:39;;;;;;;18.77;7.88;;;;;;;;;;5092995;28;20272;-64
2022/10/23 05:50:06;;;;;;;13.65;7.78;;;;;;;;;;5124945;27;20187;-64
2022/10/23 05:52:34;;;;;;;15.90;8.70;;;;;;;;;;5128956;27;20209;-64
2022/10/23 05:55:03;;;;;;;11.52;7.55;;;;;;;;;;5114455;27;20271;-67
2022/10/23 05:57:33;;;;;;;9.80;7.00;;;;;;;;;;5113654;28;20195;-65
2022/10/23 06:00:01;;;;;;;12.05;6.53;;;;;;;;;;5113114;27;20634;-66
2022/10/23 06:02:28;;;;;;;10.93;5.75;;;;;;;;;;5122898;27;20561;-66
2022/10/23 06:04:56;;;;;;;10.05;5.72;;;;;;;;;;5132224;27;20188;-65
2022/10/23 06:07:26;;;;;;;7.50;4.75;;;;;;;;;;5132139;27;20240;-66
2022/10/23 06:09:54;;;;;;;7.13;4.15;;;;;;;;;;5130107;27;20187;-66
2022/10/23 06:12:23;;;;;;;8.50;4.85;;;;;;;;;;5113589;27;20206;-66
2022/10/23 06:14:51;;;;;;;8.73;5.35;;;;;;;;;;5127365;27;20180;-66
2022/10/23 06:17:18;;;;;;;6.45;4.22;;;;;;;;;;5131527;27;20188;-65
2022/10/23 06:19:46;;;;;;;5.20;3.35;;;;;;;;;;5124308;27;20325;-65
2022/10/23 06:22:13;;;;;;;5.60;4.40;;;;;;;;;;5113052;28;20220;-65
2022/10/23 06:24:41;;;;;;;7.65;4.22;;;;;;;;;;5126171;27;20179;-65
2022/10/23 06:27:09;;;;;;;6.85;4.57;;;;;;;;;;5132955;27;20279;-65
2022/10/23 06:29:38;;;;;;;5.10;4.13;;;;;;;;;;5114936;27;20184;-66
2022/10/23 06:32:05;;;;;;;6.35;4.32;;;;;;;;;;5117419;28;20653;-65
2022/10/23 06:34:33;;;;;;;8.27;4.10;;;;;;;;;;5108658;27;20783;-67
2022/10/23 06:37:00;;;;;;;6.45;4.65;;;;;;;;;;5111729;28;20185;-65
2022/10/23 06:39:28;;;;;;;7.57;4.10;;;;;;;;;;5128583;28;20633;-67
2022/10/23 06:41:57;;;;;;;6.90;5.20;;;;;;;;;;5098378;28;20273;-66
2022/10/23 06:44:24;;;;;;;14.85;4.82;;;;;;;;;;5116785;28;20183;-65
2022/10/23 06:46:57;;;;;;;7.55;4.82;;;;;;;;;;5118125;28;20362;-66
2022/10/23 06:49:25;;;;;;;5.55;3.85;;;;;;;;;;5113848;28;20249;-66
2022/10/23 06:51:52;;;;;;;8.73;3.17;;;;;;;;;;5130597;28;20192;-66
2022/10/23 06:54:20;;;;;;;3.65;2.80;;;;;;;;;;5122439;28;20245;-65
2022/10/23 06:56:47;;;;;;;5.90;3.05;;;;;;;;;;5122338;28;20194;-65
2022/10/23 06:59:16;;;;;;;5.47;3.45;;;;;;;;;;5125699;28;20588;-64
2022/10/23 07:01:43;;;;;;;7.80;4.78;;;;;;;;;;5112517;28;20241;-63
2022/10/23 07:04:13;;;;;;;9.90;4.38;;;;;;;;;;5127041;28;20191;-64
2022/10/23 07:06:40;;;;;;;4.45;3.50;;;;;;;;;;5130951;27;20223;-63
2022/10/23 07:09:08;;;;;;;9.25;4.47;;;;;;;;;;5130086;28;20651;-64
2022/10/23 07:11:37;;;;;;;7.40;4.00;;;;;;;;;;5112370;28;20591;-64
2022/10/23 07:14:05;;;;;;;6.18;5.32;;;;;;;;;;5110918;28;20188;-64
2022/10/23 07:16:32;;;;;;;7.72;5.10;;;;;;;;;;5110866;28;20275;-66
2022/10/23 07:19:00;;;;;;;9.43;5.25;;;;;;;;;;5110617;28;20227;-66
2022/10/23 07:21:30;;;;;;;5.75;4.63;;;;;;;;;;5110927;28;20197;-66
2022/10/23 07:23:58;;;;;;;7.57;4.65;;;;;;;;;;5110728;28;20694;-66
2022/10/23 07:26:31;;;;;;;5.20;4.20;;;;;;;;;;5110584;28;20216;-65
2022/10/23 07:28:59;;;;;;;4.65;4.20;;;;;;;;;;5108225;28;20189;-64
2022/10/23 07:31:27;;;;;;;6.53;4.05;;;;;;;;;;5111116;28;20238;-64
2022/10/23 07:33:54;;;;;;;5.22;3.53;;;;;;;;;;5110886;28;20242;-64
2022/10/23 07:36:21;;;;;;;4.05;3.25;;;;;;;;;;5111292;28;20193;-64
2022/10/23 07:38:50;;;;;;;6.07;3.65;;;;;;;;;;5107913;27;20658;-64
2022/10/23 07:41:18;;;;;;;4.00;3.20;;;;;;;;;;5114539;28;20283;-64
2022/10/23 07:43:45;;;;;;;4.60;3.80;;;;;;;;;;5114468;27;20208;-63
2022/10/23 07:46:12;;;;;;;4.50;3.53;;;;;;;;;;5113989;28;20952;-64
2022/10/23 07:48:39;;;;;;;4.80;3.57;;;;;;;;;;5114082;27;20286;-64
2022/10/23 07:51:09;;;;;;;3.67;3.17;;;;;;;;;;5113945;28;20916;-64
2022/10/23 07:53:37;;;;;;;3.80;3.40;;;;;;;;;;5114507;28;20466;-64
2022/10/23 07:56:11;;;;;;;11.63;3.37;;;;;;;;;;5114472;28;20438;-65
2022/10/23 07:58:38;;;;;;;5.87;4.37;;;;;;;;;;5114062;27;20482;-64
2022/10/23 08:01:13;;;;;;;4.80;4.27;;;;;;;;;;5114195;28;20470;-64
2022/10/23 08:03:41;;;;;;;6.07;4.83;;;;;;;;;;5113548;27;20487;-64
2022/10/23 08:06:08;;;;;;;6.57;5.43;;;;;;;;;;5113373;28;20478;-64
2022/10/23 08:08:35;;;;;;;8.60;7.10;;;;;;;;;;5113539;28;20844;-64
2022/10/23 08:11:02;;;;;;;5.47;3.83;;;;;;;;;;5113981;28;20520;-64
2022/10/23 08:13:31;;;;;;;9.07;4.67;;;;;;;;;;5112757;28;20520;-66
2022/10/23 08:15:58;;;;;;;13.17;5.93;;;;;;;;;;5113978;28;20833;-65
2022/10/23 08:18:25;;;;;;;10.50;5.57;;;;;;;;;;5113665;27;21002;-64
2022/10/23 08:20:53;;;;;;;9.10;5.30;;;;;;;;;;5113292;28;20734;-65
2022/10/23 08:23:20;;;;;;;6.50;3.63;;;;;;;;;;5113171;27;20524;-65
2022/10/23 08:25:47;;;;;;;4.97;2.50;;;;;;;;;;5113895;28;20430;-65
2022/10/23 08:28:15;;;;;;;6.23;3.10;;;;;;;;;;5112154;28;20488;-64
2022/10/23 08:30:44;;;;;;;6.47;2.33;;;;;;;;;;5113621;28;20436;-65
2022/10/23 08:33:11;;;;;;;4.30;2.97;;;;;;;;;;5112387;28;20526;-64
2022/10/23 08:35:39;;;;;;;4.80;2.30;;;;;;;;;;5114306;27;20462;-64
2022/10/23 08:38:06;;;;;;;4.77;2.10;;;;;;;;;;5112420;27;20796;-64
2022/10/23 08:40:35;;;;;;;6.93;1.87;;;;;;;;;;5112918;28;20434;-65
2022/10/23 08:43:06;;;;;;;3.70;2.50;;;;;;;;;;5109096;27;20481;-64
2022/10/23 08:45:36;;;;;;;2.53;1.57;;;;;;;;;;5113408;28;20947;-64
2022/10/23 08:48:11;;;;;;;2.20;1.40;;;;;;;;;;5112573;27;20469;-65
2022/10/23 08:50:41;;;;;;;3.10;1.33;;;;;;;;;;5109477;28;20486;-65
2022/10/23 08:53:14;;;;;;;4.50;1.30;;;;;;;;;;5112757;28;20982;-65
2022/10/23 08:55:44;;;;;;;3.20;1.73;;;;;;;;;;5112774;28;20495;-65
2022/10/23 08:58:14;;;;;;;3.90;1.10;;;;;;;;;;5113347;27;21102;-65
2022/10/23 09:00:44;;;;;;;5.83;1.17;;;;;;;;;;5112261;28;20487;-65
2022/10/23 09:03:14;;;;;;;4.47;1.07;;;;;;;;;;5112256;28;20553;-65
2022/10/23 09:05:46;;;;;;;2.93;1.07;;;;;;;;;;5112234;27;20453;-66
2022/10/23 09:08:22;;;;;;;3.03;1.20;;;;;;;;;;5112751;28;20803;-65
2022/10/23 09:10:59;;;;;;;7.27;1.50;;;;;;;;;;5109682;27;20547;-66
2022/10/23 09:13:36;;;;;;;5.20;1.03;;;;;;;;;;5112209;28;20833;-66
2022/10/23 09:16:09;;;;;;;2.10;1.30;;;;;;;;;;5109050;28;20961;-65
2022/10/23 09:18:38;;;;;;;3.60;1.30;;;;;;;;;;5105916;27;20450;-66
2022/10/23 09:21:09;;;;;;;3.40;1.30;;;;;;;;;;5085959;27;20435;-66
2022/10/23 09:23:36;;;;;;;2.77;1.30;;;;;;;;;;5112144;28;20524;-66
2022/10/23 09:26:08;;;;;;;2.23;1.20;;;;;;;;;;5112133;28;20434;-66
2022/10/23 09:28:41;;;;;;;2.10;1.00;;;;;;;;;;5112553;27;20969;-66
2022/10/23 09:31:10;;;;;;;2.47;1.10;;;;;;;;;;5112286;28;20970;-66
2022/10/23 09:33:39;;;;;;;2.83;1.10;;;;;;;;;;5112155;27;20481;-67
2022/10/23 09:36:09;;;;;;;1.93;1.03;;;;;;;;;;5108634;28;20457;-66
2022/10/23 09:38:38;;;;;;;3.87;1.40;;;;;;;;;;5114055;27;20939;-67
2022/10/23 09:41:08;;;;;;;2.40;1.50;;;;;;;;;;5110619;28;20525;-67
2022/10/23 09:43:35;;;;;;;2.77;1.27;;;;;;;;;;5107600;28;20438;-66
2022/10/23 09:46:03;;;;;;;3.50;1.30;;;;;;;;;;5115460;27;20430;-66
2022/10/23 09:48:31;;;;;;;2.10;0.80;;;;;;;;;;5111369;27;20931;-65
2022/10/23 09:51:01;;;;;;;5.00;0.90;;;;;;;;;;5111447;27;20443;-67
2022/10/23 09:53:33;;;;;;;4.80;1.30;;;;;;;;;;5108282;28;20483;-66
2022/10/23 09:56:01;;;;;;;2.10;1.03;;;;;;;;;;5111968;28;20449;-66
2022/10/23 09:58:31;;;;;;;3.20;1.00;;;;;;;;;;5111451;28;20441;-68
2022/10/23 10:00:58;;;;;;;2.77;1.20;;;;;;;;;;5107433;28;20426;-66
2022/10/23 10:03:26;;;;;;;4.83;2.27;;;;;;;;;;5109767;28;20497;-68
2022/10/23 10:05:55;;;;;;;2.30;1.00;;;;;;;;;;5111080;28;20481;-66
2022/10/23 10:08:26;;;;;;;2.00;0.90;;;;;;;;;;5113092;27;20947;-66
2022/10/23 10:10:55;;;;;;;2.00;0.90;;;;;;;;;;5111792;28;20826;-66
2022/10/23 10:13:36;;;;;;;3.60;1.50;;;;;;;;;;5111337;28;20477;-67
2022/10/23 10:16:07;;;;;;;3.30;1.50;;;;;;;;;;5095121;28;20445;-68
2022/10/23 10:18:40;;;;;;;4.77;1.20;;;;;;;;;;5111179;28;20548;-66
2022/10/23 10:21:12;;;;;;;2.37;1.20;;;;;;;;;;5111559;28;20854;-66
2022/10/23 10:23:45;;;;;;;2.97;0.93;;;;;;;;;;5108518;28;21422;-68
2022/10/23 10:26:18;;;;;;;1.90;0.90;;;;;;;;;;5111665;28;20435;-67
2022/10/23 10:28:51;;;;;;;1.70;0.70;;;;;;;;;;5110802;27;20854;-66
2022/10/23 10:31:23;;;;;;;1.93;0.80;;;;;;;;;;5112962;27;20835;-66
2022/10/23 10:33:57;;;;;;;2.40;0.90;;;;;;;;;;5118895;27;20473;-66
2022/10/23 10:36:40;;;;;;;5.50;1.33;;;;;;;;;;5111775;28;20434;-66
2022/10/23 10:39:12;;;;;;;10.80;1.60;;;;;;;;;;5098955;28;20433;-66
2022/10/23 10:41:46;;;;;;;5.10;2.37;;;;;;;;;;5111238;28;20442;-66
2022/10/23 10:44:22;;;;;;;2.57;1.20;;;;;;;;;;5111173;28;20439;-66
2022/10/23 10:46:53;;;;;;;3.03;1.17;;;;;;;;;;5111386;28;20970;-65
2022/10/23 10:49:28;;;;;;;4.30;1.43;;;;;;;;;;5113036;28;20460;-66
2022/10/23 10:51:59;;;;;;;2.60;1.03;;;;;;;;;;5111195;28;21103;-66
2022/10/23 10:54:36;;;;;;;10.63;1.67;;;;;;;;;;5111027;28;20493;-66
2022/10/23 10:57:06;;;;;;;5.77;1.90;;;;;;;;;;5111995;28;21128;-65
2022/10/23 10:59:37;;;;;;;2.07;1.10;;;;;;;;;;5111121;28;20442;-66
2022/10/23 11:02:14;;;;;;;2.30;1.20;;;;;;;;;;5109205;28;20438;-67
2022/10/23 11:04:46;;;;;;;3.90;2.10;;;;;;;;;;5111080;28;20446;-66
2022/10/23 11:07:15;;;;;;;5.33;2.17;;;;;;;;;;5110619;28;20829;-66
2022/10/23 11:09:43;;;;;;;4.20;1.50;;;;;;;;;;5105536;28;20474;-67
2022/10/23 11:12:16;;;;;;;2.97;1.33;;;;;;;;;;5110008;28;20446;-65
2022/10/23 11:14:45;;;;;;;3.23;1.10;;;;;;;;;;5116429;27;20469;-66
2022/10/23 11:17:15;;;;;;;2.57;1.07;;;;;;;;;;5110325;28;20435;-65
2022/10/23 11:19:44;;;;;;;2.93;1.23;;;;;;;;;;5115326;28;20469;-65
2022/10/23 11:22:23;;;;;;;2.73;0.90;;;;;;;;;;5114686;28;20525;-67
2022/10/23 11:25:12;;;;;;;2.10;1.00;;;;;;;;;;5085004;27;20523;-67
2022/10/23 11:27:50;;;;;;;2.20;1.10;;;;;;;;;;5105909;27;20434;-65
2022/10/23 11:30:23;;;;;;;2.00;1.00;;;;;;;;;;5007512;28;20426;-66
2022/10/23 11:33:09;;;;;;;1.83;0.87;;;;;;;;;;5111868;27;20900;-67
2022/10/23 11:35:46;;;;;;;3.90;1.00;;;;;;;;;;5104883;27;20488;-68
2022/10/23 11:38:18;;;;;;;2.83;0.80;;;11.90;93.70;;;;;;5111197;28;20533;-66
2022/10/23 11:40:48;;;;;;;2.93;1.00;;;39.10;21.40;;;;;;5114306;28;20495;-66
2022/10/23 11:43:28;;;;;;;3.43;1.23;;;38.40;21.30;;;;;;5115281;27;20437;-66
2022/10/23 11:45:55;;;;;;;4.00;1.83;;;38.00;22.40;;;;;;5108670;27;20478;-66
2022/10/23 11:48:34;;;;;;;3.00;1.23;;;38.10;22.70;;;;;;5114716;28;20516;-66
2022/10/23 11:51:03;;;;;;;2.87;1.47;;;38.60;22.60;;;;;;5113492;27;20837;-67
2022/10/23 11:53:39;;;;;;;5.70;1.70;;;39.10;21.80;;;;;;5111075;27;20505;-66
2022/10/23 11:56:25;;;;;;;4.47;2.20;;;38.60;22.00;;;;;;5114806;28;20480;-66
2022/10/23 11:58:55;;;;;;;4.00;2.00;;;38.80;22.80;;;;;;5111460;28;20485;-67
2022/10/23 12:01:31;;;;;;;3.67;1.83;;;39.70;22.10;;;;;;5114689;28;20764;-66
2022/10/23 12:04:00;;;;;;;4.03;1.47;;;40.70;21.10;;;;;;5112401;27;20430;-66
2022/10/23 12:06:30;;;;;;;4.33;1.23;;;40.80;20.50;;;;;;5114356;28;20901;-66
2022/10/23 12:09:01;;;;;;;3.03;0.90;;;39.60;19.80;;;;;;5113799;27;20772;-66
2022/10/23 12:11:41;;;;;;;3.10;1.30;;;38.10;21.30;;;;;;5109310;27;20474;-66
2022/10/23 12:14:28;;;;;;;3.37;1.50;;;36.70;22.10;;;;;;5116834;27;20469;-67
2022/10/23 12:16:56;;;;;;;3.10;1.70;;;35.30;23.80;;;;;;5112847;27;20436;-66
2022/10/23 12:19:25;;;;;;;3.60;1.97;;;34.20;25.00;;;;;;5113128;27;20968;-65
2022/10/23 12:21:54;;;;;;;2.60;1.30;;;33.20;26.20;;;;;;5113870;28;20514;-65
2022/10/23 12:25:05;;;;;;;2.67;1.30;;;32.20;27.60;;;;;;5117163;27;20439;-65
2022/10/23 12:27:38;;;;;;;5.90;1.30;;;31.70;29.20;;;;;;5062222;28;20434;-65
2022/10/23 12:30:21;;;;;;;2.47;1.30;;;31.60;29.50;;;;;;5113585;28;20434;-65
2022/10/23 12:33:02;;;;;;;3.00;1.30;;;31.30;30.10;;;;;;5117093;27;20478;-65
2022/10/23 12:36:04;;;;;;;4.00;2.03;;;31.00;30.90;;;;;;5113051;28;20979;-66
2022/10/23 12:38:32;;;;;;;7.70;2.60;;;30.50;31.60;;;;;;5113262;27;20420;-66
2022/10/23 12:41:06;;;;;;;5.60;2.10;;;30.40;32.70;;;;;;5114832;27;20439;-65
2022/10/23 12:43:36;;;;;;;2.40;1.23;;;31.00;33.80;;;;;;5113237;27;20941;-66
2022/10/23 12:46:18;;;;;;;5.87;1.60;;;32.10;32.80;;;;;;5114253;27;20441;-65
2022/10/23 12:48:49;;;;;;;2.40;1.50;;;32.60;31.30;;;;;;5117031;27;20999;-65
2022/10/23 12:51:23;;;;;;;2.73;1.43;;;32.90;31.50;;;;;;5113299;28;20462;-65
2022/10/23 12:53:50;;;;;;;4.53;1.23;;;33.20;29.80;;;;;;5113561;28;20485;-66
2022/10/23 12:56:18;;;;;;;6.07;1.13;;;32.70;29.50;;;;;;5112890;28;20438;-65
2022/10/23 12:58:50;;;;;;;4.53;1.30;;;32.20;30.60;;;;;;5114301;27;20993;-65
2022/10/23 13:01:26;;;;;;;5.30;1.50;;;32.00;31.90;;;;;;5113085;28;20429;-65
2022/10/23 13:03:59;;;;;;;2.90;1.20;;;32.00;31.90;;;;;;5109220;27;20972;-65
2022/10/23 13:06:27;;;;;;;4.00;1.30;;;32.30;33.10;;;;;;5113060;28;20842;-65
2022/10/23 13:08:54;;;;;;;3.30;1.40;;;32.70;31.70;;;;;;5113893;27;20430;-66
2022/10/23 13:11:22;;;;;;;5.00;1.73;;;32.80;30.90;;;;;;5113082;28;20469;-65
2022/10/23 13:13:50;;;;;;;1.80;0.90;;;32.80;31.00;;;;;;5113038;28;20557;-65
2022/10/23 13:16:18;;;;;;;6.50;3.27;;;32.80;32.10;;;;;;5113646;27;20872;-65
2022/10/23 13:18:47;;;;;;;6.83;1.97;;;32.80;31.60;;;;;;5113810;27;20554;-65
2022/10/23 13:21:19;;;;;;;2.70;1.77;;;32.50;31.60;;;;;;5112836;28;20469;-65
2022/10/23 13:23:47;;;;;;;3.20;1.23;;;32.00;31.90;;;;;;5113613;27;20825;-65
2022/10/23 13:26:28;;;;;;;3.17;1.40;;;31.40;32.70;;;;;;5112307;28;20800;-66
2022/10/23 13:28:55;;;;;;;3.03;1.37;;;30.90;33.60;;;;;;5112897;28;20521;-66
2022/10/23 13:31:26;;;;;;;3.63;2.13;;;30.40;35.40;;;;;;5112134;28;20980;-67
2022/10/23 13:34:14;;;;;;;2.60;1.37;;;30.00;35.70;;;;;;5109464;28;21001;-65
2022/10/23 13:36:51;;;;;;;5.27;2.00;;;29.60;36.20;;;;;;5110258;28;20478;-65
2022/10/23 13:39:23;;;;;;;4.63;2.13;;;29.20;37.00;;;;;;5116516;27;20788;-66
2022/10/23 13:41:52;;;;;;;2.97;1.73;;;28.80;38.90;;;;;;5112215;28;20908;-65
2022/10/23 13:44:22;;;;;;;2.80;1.27;;;28.40;39.30;;;;;;5112428;27;20447;-65
2022/10/23 13:46:50;;;;;;;3.97;1.40;;;28.00;41.10;;;;;;5112278;28;20466;-65
2022/10/23 13:49:19;;;;;;;3.47;1.33;;;27.70;41.60;;;;;;5113584;27;20434;-65
2022/10/23 13:51:50;;;;;;;4.40;1.60;;;27.60;42.10;;;;;;5112227;27;20555;-65
2022/10/23 13:54:20;;;;;;;3.50;1.77;;;27.40;43.00;;;;;;5110432;27;20547;-65
2022/10/23 13:56:47;;;;;;;4.80;1.60;;;27.20;44.30;;;;;;5111588;28;20765;-65
2022/10/23 13:59:15;;;;;;;8.10;1.30;;;27.10;44.70;;;;;;5112262;27;20449;-65
2022/10/23 14:01:43;;;;;;;2.47;1.10;;;26.90;45.20;;;;;;5111849;28;20442;-65
2022/10/23 14:04:11;;;;;;;3.20;1.27;;;26.70;45.10;;;;;;5115354;27;20927;-66
2022/10/23 14:06:41;;;;;;;2.50;1.30;;;26.60;45.30;;;;;;5107253;28;20449;-65
2022/10/23 14:09:10;;;;;;;4.93;1.70;;;26.40;46.00;;;;;;5111728;28;20470;-65
2022/10/23 14:11:38;;;;;;;4.63;1.30;;;26.10;47.80;;;;;;5109607;28;20502;-66
2022/10/23 14:14:05;;;;;;;4.63;1.43;;;25.90;47.90;;;;;;5113190;27;20445;-66
2022/10/23 14:16:33;;;;;;;3.23;1.47;;;25.70;48.30;;;;;;5116123;27;20433;-66
2022/10/23 14:19:00;;;;;;;3.03;1.07;;;25.50;50.00;;;;;;5118539;27;20480;-66
2022/10/23 14:21:27;;;;;;;2.23;0.97;;;25.30;50.50;;;;;;5115080;27;20442;-65
2022/10/23 14:23:57;;;;;;;2.60;1.20;;;25.20;51.10;;;;;;5112517;27;20449;-66
2022/10/23 14:26:26;;;;;;;2.60;1.20;;;25.00;52.20;;;;;;5114786;28;20446;-66
2022/10/23 14:28:55;;;;;;;4.50;1.70;;;24.80;53.00;;;;;;5113625;28;20445;-65
2022/10/23 14:31:22;;;;;;;7.10;1.50;;;24.60;53.30;;;;;;5117629;27;20437;-65
2022/10/23 14:33:54;;;;;;;5.40;1.97;;;24.50;53.60;;;;;;5115601;27;20935;-64